Main page
METAR-TAF:

METAR-TAF

Airports :

Tabuk Regional Airport

Tabuk, Saudi Arabia

latitude: 28-22N, longitude: 036-36E, elevation: 778 m

Current weather observation

The report was made 48 minutes ago, at 00:00 UTC
Wind 12 kt from the South/Southwest
Temperature 9°C
Humidity 57%
Pressure 1014 hPa
Visibility 10 km or more
no clouds below 1500 m and no cumulonimbus

METAR: OETB 160000Z 21012KT CAVOK 09/01 Q1014 NOSIG

Time: 03:48 (00:48 UTC)

Forecast

The report was made 1 hour and 48 minutes ago, at 23:00 UTC
Forecast valid from 16 at 00 UTC to 17 at 06 UTC
Wind 3 kt from variable directions
Visibility 10 km or more
no clouds below 1500 m and no cumulonimbus
Becoming
from 16 at 06 UTC to 16 at 08 UTC
Wind 10 kt from the West/Southwest with gusts up to 20 kt
Visibility: 8000 m
Temporary
from 16 at 10 UTC to 16 at 15 UTC
Visibility: 4000 m
widespread dust, Blowing dust

TAF: OETB 152300Z 1600/1706 VRB03KT CAVOK BECMG 1606/1608 25010G20KT 8000 NSC TEMPO 1610/1615 4000 DU BLDU

Weather observations and forecasts of more than 4000 airports (METAR and TAF reports).

The available stations are represented by yellow and red dots on the map.

Hover mouse over dot to see the name of the station.

Then click to see weather observations and forecasts.

To change the map : click on the green buttons with a black cross to zoom in, on the green button with a dash to zoom out, or on the green arrows for adjacent maps.


METAR-TAF: